Time;durP1;ratioP1;P1;durP2;ratioP2;P2;SDS_P1;SDS_P2;PMS_P1;PMS_P2;Temp;Humidity;BMP_temperature;BMP_pressure;BME280_temperature;BME280_humidity;BME280_pressure;Samples;Min_cycle;Max_cycle;Signal;HPM_P1;HPM_P2
2022/11/16 00:01:27;;;;;;;3.58;1.10;;;11.50;99.90;;;;;;4851668;29;20030;-88
2022/11/16 00:03:54;;;;;;;2.95;1.15;;;11.50;99.90;;;;;;4838334;29;20030;-87
2022/11/16 00:06:21;;;;;;;2.33;1.10;;;11.50;99.90;;;;;;4851175;29;20132;-86
2022/11/16 00:09:20;;;;;;;2.58;1.05;;;11.50;99.90;;;;;;4839707;29;20044;-86
2022/11/16 00:11:38;;;;;;;2.30;1.27;;;11.50;99.90;;;;;;4852313;29;20498;-86
2022/11/16 00:14:05;;;;;;;2.13;1.10;;;11.50;99.90;;;;;;4835461;29;20121;-85
2022/11/16 00:16:31;;;;;;;3.20;1.20;;;11.50;99.90;;;;;;4860262;29;20034;-86
2022/11/16 00:18:59;;;;;;;2.55;0.98;;;11.50;99.90;;;;;;4866158;29;20038;-87
2022/11/16 00:21:26;;;;;;;2.20;1.27;;;11.50;99.90;;;;;;4851004;29;20504;-87
2022/11/16 00:23:52;;;;;;;2.00;1.23;;;11.50;99.90;;;;;;4862627;29;20045;-86
2022/11/16 00:26:18;;;;;;;2.03;0.90;;;11.50;99.90;;;;;;4863862;29;20065;-86
2022/11/16 00:28:43;;;;;;;2.15;0.98;;;11.50;99.90;;;;;;4854855;29;20132;-87
2022/11/16 00:31:09;;;;;;;2.70;1.45;;;11.40;99.90;;;;;;4841606;29;20045;-86
2022/11/16 00:33:35;;;;;;;2.00;1.10;;;11.50;99.90;;;;;;4869553;29;20033;-86
2022/11/16 00:36:03;;;;;;;2.75;1.45;;;11.50;99.90;;;;;;4855374;29;20029;-85
2022/11/16 00:38:29;;;;;;;1.85;0.82;;;11.40;99.90;;;;;;4858146;29;20043;-86
2022/11/16 00:40:54;;;;;;;2.40;1.50;;;11.40;99.90;;;;;;4855206;29;20029;-86
2022/11/16 00:43:20;;;;;;;2.80;1.40;;;11.50;99.90;;;;;;4868152;29;20042;-85
2022/11/16 00:45:46;;;;;;;2.53;1.48;;;11.50;99.90;;;;;;4838037;29;20042;-86
2022/11/16 00:48:12;;;;;;;3.33;1.40;;;11.50;99.90;;;;;;4858770;29;20410;-86
2022/11/16 00:50:38;;;;;;;2.40;1.30;;;11.50;99.90;;;;;;4869827;29;20112;-86
2022/11/16 00:53:05;;;;;;;3.58;1.65;;;11.50;99.90;;;;;;4854171;29;20029;-86
2022/11/16 00:55:32;;;;;;;3.55;1.40;;;11.50;99.90;;;;;;4855657;29;20033;-85
2022/11/16 00:57:58;;;;;;;4.90;1.63;;;11.50;99.90;;;;;;4868426;29;20030;-86
2022/11/16 01:00:24;;;;;;;3.13;1.60;;;11.50;99.90;;;;;;4858034;29;20036;-85
2022/11/16 01:02:53;;;;;;;3.88;1.23;;;11.50;99.90;;;;;;4837722;29;20094;-86
2022/11/16 01:05:19;;;;;;;3.50;0.98;;;11.50;99.90;;;;;;4847149;29;20049;-87
2022/11/16 01:07:45;;;;;;;1.92;1.02;;;11.50;99.90;;;;;;4856756;29;20026;-87
2022/11/16 01:10:13;;;;;;;3.05;1.80;;;11.40;99.90;;;;;;4851747;29;20312;-86
2022/11/16 01:12:41;;;;;;;3.20;1.60;;;11.50;99.90;;;;;;4842724;29;20030;-85
2022/11/16 01:15:08;;;;;;;2.90;1.50;;;11.50;99.90;;;;;;4855803;29;20533;-86
2022/11/16 01:17:35;;;;;;;2.50;1.17;;;11.50;99.90;;;;;;4854458;29;20045;-85
2022/11/16 01:20:01;;;;;;;1.98;0.93;;;11.50;99.90;;;;;;4850577;29;20062;-86
2022/11/16 01:22:27;;;;;;;3.08;1.38;;;11.40;99.90;;;;;;4841716;29;20054;-87
2022/11/16 01:24:53;;;;;;;2.92;1.50;;;11.50;99.90;;;;;;4863813;29;20538;-84
2022/11/16 01:27:18;;;;;;;2.97;1.40;;;11.50;99.90;;;;;;4854725;29;20181;-85
2022/11/16 01:29:44;;;;;;;3.08;1.33;;;11.50;99.90;;;;;;4855306;29;20091;-86
2022/11/16 01:32:10;;;;;;;3.40;1.20;;;11.40;99.90;;;;;;4855124;29;20022;-85
2022/11/16 01:34:36;;;;;;;2.35;1.15;;;11.40;99.90;;;;;;4849352;29;20040;-86
2022/11/16 01:37:08;;;;;;;1.90;0.90;;;11.40;99.90;;;;;;4837937;29;20026;-85
2022/11/16 01:39:37;;;;;;;2.53;1.15;;;11.40;99.90;;;;;;4846459;29;20109;-87
2022/11/16 01:42:03;;;;;;;2.67;1.80;;;11.50;99.90;;;;;;4869451;29;20493;-86
2022/11/16 01:44:33;;;;;;;2.90;1.52;;;11.50;99.90;;;;;;4867179;29;20041;-85
2022/11/16 01:47:24;;;;;;;1.85;1.00;;;11.50;99.90;;;;;;4851087;29;20054;-86
2022/11/16 01:49:57;;;;;;;1.92;1.30;;;11.50;99.90;;;;;;4840115;29;20034;-83
2022/11/16 01:52:31;;;;;;;2.50;1.70;;;11.40;99.90;;;;;;4868115;29;20143;-85
2022/11/16 01:54:57;;;;;;;3.50;1.50;;;11.50;99.90;;;;;;4849982;29;20034;-85
2022/11/16 01:57:31;;;;;;;2.65;2.05;;;11.50;99.90;;;;;;4836026;29;20032;-86
2022/11/16 02:00:08;;;;;;;2.75;1.60;;;11.50;99.90;;;;;;4840876;29;20037;-83
2022/11/16 02:02:43;;;;;;;3.38;1.70;;;11.40;99.90;;;;;;4838825;29;20506;-85
2022/11/16 02:05:44;;;;;;;2.10;1.40;;;11.40;99.90;;;;;;4862904;29;20040;-86
2022/11/16 02:12:01;;;;;;;3.08;1.40;;;11.40;99.90;;;;;;4835094;29;20033;-86
2022/11/16 02:15:04;;;;;;;2.47;1.30;;;11.40;99.90;;;;;;4851922;29;20017;-86
2022/11/16 02:18:00;;;;;;;2.58;1.42;;;11.40;99.90;;;;;;4867286;29;20036;-86
2022/11/16 02:20:47;;;;;;;2.58;1.95;;;11.40;99.90;;;;;;4869175;29;20081;-87
2022/11/16 02:23:43;;;;;;;2.80;1.60;;;11.40;99.90;;;;;;4836983;29;20037;-87
2022/11/16 02:26:30;;;;;;;2.83;1.70;;;11.40;99.90;;;;;;4853354;29;20151;-85
2022/11/16 02:29:20;;;;;;;2.63;1.65;;;11.30;99.90;;;;;;4852197;29;20093;-86
2022/11/16 02:32:13;;;;;;;2.20;1.20;;;11.40;99.90;;;;;;4855160;29;20036;-85
2022/11/16 02:34:59;;;;;;;2.72;1.33;;;11.30;99.90;;;;;;4843964;29;20048;-86
2022/11/16 02:37:27;;;;;;;1.83;0.75;;;11.30;99.90;;;;;;4855678;29;20033;-84
2022/11/16 02:39:57;;;;;;;1.98;1.00;;;11.30;99.90;;;;;;4868482;29;20090;-86
2022/11/16 02:42:33;;;;;;;;;;;11.30;99.90;;;;;;4867286;29;20415;-86
2022/11/16 02:45:04;;;;;;;2.05;0.70;;;11.30;99.90;;;;;;4867718;29;19955;-86
2022/11/16 02:47:33;;;;;;;2.10;0.80;;;11.30;99.90;;;;;;4859447;29;20124;-86
2022/11/16 02:50:10;;;;;;;2.42;1.30;;;11.30;99.90;;;;;;4868359;29;20036;-85
2022/11/16 02:52:37;;;;;;;1.80;0.77;;;11.30;99.90;;;;;;4835520;29;20100;-86
2022/11/16 02:55:06;;;;;;;1.90;1.08;;;11.30;99.90;;;;;;4836732;29;20655;-84
2022/11/16 02:57:58;;;;;;;2.22;1.00;;;11.30;99.90;;;;;;4865374;29;20042;-85
2022/11/16 03:00:32;;;;;;;2.05;1.23;;;11.30;99.90;;;;;;4854764;29;20124;-84
2022/11/16 03:03:06;;;;;;;2.22;1.27;;;11.30;99.90;;;;;;4868027;29;20033;-86
2022/11/16 03:05:43;;;;;;;2.22;1.13;;;11.20;99.90;;;;;;4839492;29;20037;-86
2022/11/16 03:08:28;;;;;;;1.95;1.20;;;11.30;99.90;;;;;;4864322;29;20030;-85
2022/11/16 03:13:59;;;;;;;3.03;1.20;;;11.20;99.90;;;;;;4869491;29;20036;-85
2022/11/16 03:16:35;;;;;;;2.00;0.90;;;11.30;99.90;;;;;;4837995;29;20037;-86
2022/11/16 03:19:06;;;;;;;3.08;1.52;;;11.30;99.90;;;;;;4866151;29;20030;-85
2022/11/16 03:21:49;;;;;;;1.98;1.30;;;11.30;99.90;;;;;;4856860;29;20089;-85
2022/11/16 03:24:17;;;;;;;2.50;1.40;;;11.30;99.90;;;;;;4868943;29;20030;-86
2022/11/16 03:27:12;;;;;;;2.80;1.60;;;11.30;99.90;;;;;;4868769;29;20037;-84
2022/11/16 03:29:44;;;;;;;2.03;1.15;;;11.30;99.90;;;;;;4850855;29;20506;-86
2022/11/16 03:32:20;;;;;;;4.30;2.15;;;11.30;99.90;;;;;;4851036;29;20104;-86
2022/11/16 03:34:55;;;;;;;2.47;1.65;;;11.30;99.90;;;;;;4867022;29;20033;-85
2022/11/16 03:37:23;;;;;;;2.58;1.50;;;11.30;99.90;;;;;;4866624;29;20067;-86
2022/11/16 03:39:52;;;;;;;2.92;2.08;;;11.30;99.90;;;;;;4867251;29;20040;-85
2022/11/16 03:42:20;;;;;;;2.42;1.30;;;11.30;99.90;;;;;;4850896;29;20046;-87
2022/11/16 03:44:49;;;;;;;3.08;1.90;;;11.30;99.90;;;;;;4863571;29;20134;-85
2022/11/16 03:47:14;;;;;;;2.83;2.10;;;11.30;99.90;;;;;;4850511;29;20026;-85
2022/11/16 03:49:45;;;;;;;2.67;1.90;;;11.30;99.90;;;;;;4839207;29;20489;-86
2022/11/16 03:52:15;;;;;;;2.83;1.33;;;11.40;99.90;;;;;;4863431;29;20029;-86
2022/11/16 03:54:41;;;;;;;2.50;1.55;;;11.40;99.90;;;;;;4864412;29;20118;-87
2022/11/16 03:57:09;;;;;;;2.75;2.03;;;11.40;99.90;;;;;;4835084;29;20444;-87
2022/11/16 03:59:35;;;;;;;2.53;1.50;;;11.40;99.90;;;;;;4862145;29;20025;-85
2022/11/16 04:02:01;;;;;;;2.50;1.80;;;11.30;99.90;;;;;;4854338;29;20102;-85
2022/11/16 04:29:11;;;;;;;2.60;2.17;;;11.40;99.90;;;;;;4854740;29;20489;-83
2022/11/16 04:39:55;;;;;;;2.65;1.55;;;11.40;99.90;;;;;;4870217;29;20034;-84
2022/11/16 04:42:21;;;;;;;3.20;2.20;;;11.50;99.90;;;;;;4856935;29;20045;-82
2022/11/16 04:47:44;;;;;;;2.25;1.35;;;11.40;99.90;;;;;;4869275;29;20022;-80
2022/11/16 04:50:10;;;;;;;2.10;1.20;;;11.30;99.90;;;;;;4853398;29;20120;-82
2022/11/16 04:52:37;;;;;;;1.60;0.80;;;11.30;99.90;;;;;;4842093;29;20026;-83
2022/11/16 04:55:04;;;;;;;2.15;1.23;;;11.30;99.90;;;;;;4841567;29;20435;-81
2022/11/16 04:57:31;;;;;;;1.58;0.80;;;11.30;99.90;;;;;;4867075;29;20060;-83
2022/11/16 04:59:57;;;;;;;2.10;1.00;;;11.30;99.90;;;;;;4867841;29;20254;-85
2022/11/16 05:02:23;;;;;;;2.33;0.90;;;11.20;99.90;;;;;;4842112;29;20087;-83
2022/11/16 05:04:53;;;;;;;2.88;1.10;;;11.20;99.90;;;;;;4855020;29;20518;-84
2022/11/16 05:07:20;;;;;;;2.30;1.08;;;11.20;99.90;;;;;;4839778;29;20093;-85
2022/11/16 05:09:48;;;;;;;3.78;1.52;;;11.20;99.90;;;;;;4852557;29;20299;-83
2022/11/16 05:12:17;;;;;;;2.50;1.50;;;11.20;99.90;;;;;;4869776;29;20057;-85
2022/11/16 05:14:45;;;;;;;2.45;1.60;;;11.20;99.90;;;;;;4841695;29;20041;-82
2022/11/16 05:17:13;;;;;;;1.92;1.33;;;11.20;99.90;;;;;;4852740;29;20026;-84
2022/11/16 05:22:25;;;;;;;3.35;0.88;;;11.20;99.90;;;;;;4865812;29;20087;-84
2022/11/16 05:24:52;;;;;;;2.97;1.98;;;11.10;99.90;;;;;;4862163;29;20046;-84
2022/11/16 05:27:21;;;;;;;2.55;1.55;;;11.10;99.90;;;;;;4868634;29;20049;-82
2022/11/16 05:29:48;;;;;;;2.60;1.60;;;11.10;99.90;;;;;;4821385;29;20128;-84
2022/11/16 05:32:19;;;;;;;2.40;1.25;;;11.10;99.90;;;;;;4853783;29;20034;-82
2022/11/16 05:34:45;;;;;;;1.85;1.20;;;11.10;99.90;;;;;;4840297;29;20046;-84
2022/11/16 05:37:12;;;;;;;3.28;2.30;;;11.10;99.90;;;;;;4852971;29;20037;-84
2022/11/16 05:39:41;;;;;;;3.47;1.75;;;11.10;99.90;;;;;;4864535;29;20478;-82
2022/11/16 05:42:09;;;;;;;2.45;1.65;;;11.10;99.90;;;;;;4852030;29;20193;-84
2022/11/16 05:44:35;;;;;;;2.20;1.40;;;11.10;99.90;;;;;;4855013;29;20037;-83
2022/11/16 05:47:01;;;;;;;5.50;1.77;;;11.10;99.90;;;;;;4872713;29;20029;-84
2022/11/16 05:49:30;;;;;;;2.83;1.73;;;11.00;99.90;;;;;;4831613;29;20044;-84
2022/11/16 05:51:57;;;;;;;2.70;1.23;;;11.10;99.90;;;;;;4853255;29;20399;-84
2022/11/16 05:54:30;;;;;;;3.03;1.50;;;11.00;99.90;;;;;;4856832;29;20443;-83
2022/11/16 05:56:55;;;;;;;2.75;1.70;;;11.00;99.90;;;;;;4833978;29;20061;-84
2022/11/16 05:59:22;;;;;;;2.90;1.65;;;11.00;99.90;;;;;;4838905;29;20049;-83
2022/11/16 06:01:51;;;;;;;2.20;1.48;;;11.00;99.90;;;;;;4837764;29;20148;-83
2022/11/16 06:04:17;;;;;;;2.85;1.70;;;11.00;99.90;;;;;;4851523;29;20574;-85
2022/11/16 06:06:43;;;;;;;2.60;1.55;;;10.90;99.90;;;;;;4852883;29;20395;-85
2022/11/16 06:09:12;;;;;;;3.45;1.98;;;10.90;99.90;;;;;;4867361;29;20120;-84
2022/11/16 06:11:40;;;;;;;4.75;1.40;;;10.90;99.90;;;;;;4835964;29;20041;-84
2022/11/16 06:14:06;;;;;;;2.22;1.20;;;10.90;99.90;;;;;;4867532;29;20058;-83
2022/11/16 06:16:33;;;;;;;2.63;1.00;;;10.80;99.90;;;;;;4837680;29;20061;-84
2022/11/16 06:19:01;;;;;;;1.92;0.85;;;10.80;99.90;;;;;;4839859;29;20117;-85
2022/11/16 06:21:27;;;;;;;3.10;0.90;;;10.80;99.90;;;;;;4835507;29;20479;-84
2022/11/16 06:23:53;;;;;;;3.15;1.00;;;10.80;99.90;;;;;;4867671;29;20602;-84
2022/11/16 06:26:20;;;;;;;3.70;0.80;;;10.70;99.90;;;;;;4850006;29;20140;-82
2022/11/16 06:28:47;;;;;;;2.25;0.70;;;10.70;99.90;;;;;;4851036;29;20090;-84
2022/11/16 06:31:13;;;;;;;1.70;0.65;;;10.60;99.90;;;;;;4853931;29;20029;-84
2022/11/16 06:33:40;;;;;;;2.20;0.60;;;10.60;99.90;;;;;;4851039;29;20025;-84
2022/11/16 06:36:15;;;;;;;1.13;0.40;;;10.60;99.90;;;;;;4838294;29;20025;-84
2022/11/16 06:38:42;;;;;;;2.35;0.50;;;10.50;99.90;;;;;;4852704;29;20037;-83
2022/11/16 06:41:09;;;;;;;2.20;0.50;;;10.40;99.90;;;;;;4849642;29;20954;-85
2022/11/16 06:43:41;;;;;;;2.33;0.45;;;10.30;99.90;;;;;;4853926;29;20046;-84
2022/11/16 06:46:07;;;;;;;1.23;0.50;;;10.20;99.90;;;;;;4860242;29;20044;-85
2022/11/16 06:48:35;;;;;;;1.50;0.50;;;10.10;99.90;;;;;;4861480;29;20026;-84
2022/11/16 06:51:04;;;;;;;1.70;0.50;;;10.10;99.90;;;;;;4855163;29;20077;-85
2022/11/16 06:53:30;;;;;;;1.13;0.40;;;10.00;99.90;;;;;;4852494;29;20467;-84
2022/11/16 06:56:01;;;;;;;1.50;0.50;;;9.90;99.90;;;;;;4850983;29;20038;-84
2022/11/16 06:58:31;;;;;;;2.15;0.70;;;9.90;99.90;;;;;;4849420;29;20046;-84
2022/11/16 07:01:08;;;;;;;2.65;0.50;;;9.80;99.90;;;;;;4838345;29;20034;-85
2022/11/16 07:03:38;;;;;;;1.77;0.50;;;9.80;99.90;;;;;;4840669;29;20140;-84
2022/11/16 07:06:12;;;;;;;2.20;0.40;;;9.80;99.90;;;;;;4837550;29;20124;-84
2022/11/16 07:08:39;;;;;;;1.40;0.30;;;9.70;99.90;;;;;;4839044;29;20034;-83
2022/11/16 07:11:07;;;;;;;1.42;0.30;;;9.70;99.90;;;;;;4854095;29;20082;-83
2022/11/16 07:13:35;;;;;;;2.17;0.40;;;9.70;99.90;;;;;;4863792;29;20113;-84
2022/11/16 07:16:08;;;;;;;0.70;0.30;;;9.60;99.90;;;;;;4835781;29;20044;-84
2022/11/16 07:18:36;;;;;;;1.75;0.40;;;9.60;99.90;;;;;;4864783;29;20033;-84
2022/11/16 07:21:07;;;;;;;2.35;0.50;;;9.50;99.90;;;;;;4835104;29;20078;-83
2022/11/16 07:23:33;;;;;;;1.60;0.50;;;9.50;99.90;;;;;;4854336;29;20025;-85
2022/11/16 07:26:00;;;;;;;1.40;0.52;;;9.50;99.90;;;;;;4863264;29;20179;-86
2022/11/16 07:28:35;;;;;;;1.63;0.40;;;9.50;99.90;;;;;;4852471;29;20021;-84
2022/11/16 07:31:06;;;;;;;1.52;0.88;;;9.50;99.90;;;;;;4852177;29;20069;-86
2022/11/16 07:33:32;;;;;;;2.28;0.40;;;9.50;99.90;;;;;;4839391;29;20073;-86
2022/11/16 07:36:24;;;;;;;0.88;0.30;;;9.40;99.90;;;;;;4854358;29;20046;-84
2022/11/16 07:38:53;;;;;;;1.33;0.55;;;9.40;99.90;;;;;;4848513;29;20046;-85
2022/11/16 07:41:24;;;;;;;1.55;0.50;;;9.40;99.90;;;;;;4856098;29;20026;-86
2022/11/16 07:44:03;;;;;;;1.60;0.45;;;9.40;99.90;;;;;;4868913;29;20070;-84
2022/11/16 07:46:33;;;;;;;1.95;0.47;;;9.40;99.90;;;;;;4856421;29;20033;-83
2022/11/16 07:49:00;;;;;;;1.33;0.30;;;9.40;99.90;;;;;;4854926;29;20034;-87
2022/11/16 07:51:43;;;;;;;1.45;0.30;;;9.50;99.90;;;;;;4866028;29;20526;-86
2022/11/16 07:54:17;;;;;;;1.15;0.30;;;9.50;99.90;;;;;;4863889;29;20103;-86
2022/11/16 07:56:44;;;;;;;1.05;0.30;;;9.50;99.90;;;;;;4854084;29;20108;-84
2022/11/16 07:59:14;;;;;;;1.55;0.30;;;9.50;99.90;;;;;;4842243;29;20125;-87
2022/11/16 08:01:46;;;;;;;0.70;0.20;;;9.50;99.90;;;;;;4855256;29;20120;-83
2022/11/16 08:04:16;;;;;;;1.20;0.22;;;9.50;99.90;;;;;;4867064;29;20034;-84
2022/11/16 08:06:42;;;;;;;1.00;0.30;;;9.50;99.90;;;;;;4842034;29;20061;-86
2022/11/16 08:09:09;;;;;;;1.10;0.30;;;9.50;99.90;;;;;;4838752;29;20037;-86
2022/11/16 08:11:36;;;;;;;1.38;0.30;;;9.60;99.90;;;;;;4842430;29;20036;-85
2022/11/16 08:14:03;;;;;;;1.42;0.30;;;9.60;99.90;;;;;;4839560;29;20062;-84
2022/11/16 08:16:32;;;;;;;0.90;0.30;;;9.60;99.90;;;;;;4841148;29;20064;-87
2022/11/16 08:19:05;;;;;;;1.52;0.30;;;9.70;99.90;;;;;;4840980;29;20712;-87
2022/11/16 08:21:36;;;;;;;2.13;0.30;;;9.70;99.90;;;;;;4863784;29;20034;-86
2022/11/16 08:24:02;;;;;;;1.50;0.43;;;9.70;99.90;;;;;;4869188;29;20056;-83
2022/11/16 08:26:29;;;;;;;2.38;0.40;;;9.80;99.90;;;;;;4840216;29;20418;-84
2022/11/16 08:29:00;;;;;;;1.80;0.30;;;9.90;99.90;;;;;;4842067;29;20030;-83
2022/11/16 08:31:30;;;;;;;1.75;0.50;;;9.90;99.90;;;;;;4840321;29;20037;-86
2022/11/16 08:34:06;;;;;;;2.80;0.60;;;9.90;99.90;;;;;;4854256;29;20112;-85
2022/11/16 08:36:33;;;;;;;2.20;0.50;;;10.00;99.90;;;;;;4847189;29;20025;-83
2022/11/16 08:39:00;;;;;;;2.08;0.50;;;10.10;99.90;;;;;;4855149;29;20029;-84
2022/11/16 08:41:27;;;;;;;3.28;0.80;;;10.00;99.90;;;;;;4839958;29;20033;-84
2022/11/16 08:43:53;;;;;;;2.25;0.50;;;10.10;99.90;;;;;;4840446;29;20050;-85
2022/11/16 08:46:20;;;;;;;2.10;0.88;;;10.20;99.90;;;;;;4852199;29;20041;-83
2022/11/16 08:48:55;;;;;;;2.00;0.60;;;10.20;99.90;;;;;;4848992;29;20068;-84
2022/11/16 08:51:22;;;;;;;3.00;0.70;;;10.20;99.90;;;;;;4853150;29;20036;-86
2022/11/16 08:53:56;;;;;;;2.35;0.80;;;10.30;99.90;;;;;;4849359;29;20034;-83
2022/11/16 08:56:25;;;;;;;3.63;0.90;;;10.30;99.90;;;;;;4856374;29;20048;-83
2022/11/16 08:58:53;;;;;;;2.80;0.80;;;10.30;99.90;;;;;;4862012;29;20615;-84
2022/11/16 09:01:21;;;;;;;2.53;0.57;;;10.40;99.90;;;;;;4855248;29;20124;-84
2022/11/16 09:03:46;;;;;;;3.25;0.60;;;10.40;99.90;;;;;;4839429;29;20121;-87
2022/11/16 09:06:13;;;;;;;3.05;0.65;;;10.40;99.90;;;;;;4853026;29;20075;-85
2022/11/16 09:08:40;;;;;;;4.55;0.80;;;10.50;99.90;;;;;;4853776;29;20033;-84
2022/11/16 09:11:08;;;;;;;2.83;0.85;;;10.50;99.90;;;;;;4867762;29;20109;-87
2022/11/16 09:13:34;;;;;;;2.95;1.10;;;10.60;99.90;;;;;;4870409;29;20034;-85
2022/11/16 09:16:01;;;;;;;2.40;0.73;;;10.60;99.90;;;;;;4854421;29;20116;-85
2022/11/16 09:18:27;;;;;;;3.78;1.20;;;10.70;99.90;;;;;;4868583;29;20025;-85
2022/11/16 09:20:53;;;;;;;3.58;0.88;;;10.80;99.90;;;;;;4856692;29;20048;-84
2022/11/16 09:23:19;;;;;;;3.50;0.80;;;10.80;99.90;;;;;;4840276;29;20067;-85
2022/11/16 09:25:47;;;;;;;3.80;0.80;;;10.90;99.90;;;;;;4854465;29;20045;-85
2022/11/16 09:28:17;;;;;;;3.03;0.60;;;10.90;99.90;;;;;;4858856;29;20074;-86
2022/11/16 09:30:44;;;;;;;;;;;10.90;99.90;;;;;;4868734;29;20032;-87
2022/11/16 09:33:09;;;;;;;3.53;0.57;;;10.90;99.90;;;;;;4864705;29;19982;-86
2022/11/16 09:35:35;;;;;;;2.38;0.70;;;11.00;99.90;;;;;;4851500;29;20050;-85
2022/11/16 09:38:01;;;;;;;4.22;0.50;;;11.20;99.90;;;;;;4852014;29;20487;-85
2022/11/16 09:40:34;;;;;;;2.20;0.60;;;11.10;99.90;;;;;;4870030;29;20054;-83
2022/11/16 09:43:29;;;;;;;3.67;0.73;;;11.10;99.90;;;;;;4849878;29;20476;-83
2022/11/16 09:46:06;;;;;;;4.05;0.52;;;11.20;99.90;;;;;;4852687;29;20042;-86
2022/11/16 09:48:36;;;;;;;2.55;0.60;;;11.20;99.90;;;;;;4869225;29;20037;-88
2022/11/16 09:51:07;;;;;;;2.00;0.60;;;11.10;99.90;;;;;;4867534;29;20116;-86
2022/11/16 09:53:56;;;;;;;1.77;0.70;;;11.30;99.90;;;;;;4837663;29;20081;-86
2022/11/16 09:56:27;;;;;;;2.85;0.40;;;11.30;99.90;;;;;;4849525;29;20037;-85
2022/11/16 09:59:07;;;;;;;4.68;0.50;;;11.30;99.90;;;;;;4828187;29;20160;-88
2022/11/16 10:01:36;;;;;;;3.20;0.68;;;11.40;99.90;;;;;;4856285;29;20037;-86
2022/11/16 10:04:21;;;;;;;4.35;0.60;;;11.30;99.90;;;;;;4852900;29;20534;-87
2022/11/16 10:07:01;;;;;;;4.88;0.57;;;11.30;99.90;;;;;;4852269;29;20487;-86
2022/11/16 10:09:29;;;;;;;2.85;1.40;;;11.40;99.90;;;;;;4853349;29;20053;-86
2022/11/16 10:12:16;;;;;;;4.82;0.50;;;11.40;99.90;;;;;;4854906;29;20034;-87
2022/11/16 10:15:06;;;;;;;5.22;0.40;;;11.40;99.90;;;;;;4867244;29;20143;-87
2022/11/16 10:17:55;;;;;;;3.53;0.60;;;11.50;99.90;;;;;;4853078;29;20488;-85
2022/11/16 10:21:06;;;;;;;5.75;0.65;;;11.60;99.90;;;;;;4853264;29;20033;-86
2022/11/16 10:24:01;;;;;;;3.72;0.40;;;11.80;99.90;;;;;;4817368;29;20188;-88
2022/11/16 10:26:37;;;;;;;2.15;0.50;;;11.70;99.90;;;;;;4816566;29;20046;-88
2022/11/16 10:29:21;;;;;;;4.82;0.40;;;11.70;99.90;;;;;;4817697;29;20058;-88
2022/11/16 10:32:01;;;;;;;2.63;0.30;;;11.70;99.90;;;;;;4802660;29;20133;-87
2022/11/16 10:34:30;;;;;;;;;;;11.70;99.90;;;;;;4807561;29;20074;-89
2022/11/16 10:37:02;;;;;;;1.20;0.35;;;11.90;99.90;;;;;;4802536;29;19916;-86
2022/11/16 10:39:31;;;;;;;3.60;0.40;;;11.80;99.90;;;;;;4818253;29;20045;-87
2022/11/16 10:42:01;;;;;;;3.30;0.40;;;11.80;99.90;;;;;;4817698;29;20043;-87
2022/11/16 10:45:12;;;;;;;5.28;0.55;;;11.70;99.90;;;;;;4805979;29;20042;-85
2022/11/16 10:47:43;;;;;;;4.93;0.32;;;11.80;99.90;;;;;;4766517;30;20082;-88
2022/11/16 10:50:33;;;;;;;2.95;0.40;;;11.70;99.90;;;;;;4773483;30;20050;-89
2022/11/16 10:52:59;;;;;;;3.75;0.40;;;11.50;99.90;;;;;;4765418;30;20043;-87
2022/11/16 10:55:27;;;;;;;3.60;0.40;;;11.60;99.90;;;;;;4780805;30;20039;-85
2022/11/16 10:57:55;;;;;;;1.67;0.40;;;11.50;99.90;;;;;;4781266;29;20647;-85
2022/11/16 11:00:39;;;;;;;5.85;0.75;;;11.70;99.90;;;;;;4749687;30;20500;-87
2022/11/16 11:03:05;;;;;;;1.95;0.30;;;11.90;99.90;;;;;;4780842;30;20118;-84
2022/11/16 11:05:31;;;;;;;1.45;0.30;;;12.00;99.90;;;;;;4750684;30;20043;-86
2022/11/16 11:08:03;;;;;;;4.18;0.47;;;12.00;99.90;;;;;;4751329;30;20057;-86
2022/11/16 11:10:35;;;;;;;2.60;0.40;;;12.10;99.90;;;;;;4780227;30;20118;-88
2022/11/16 11:13:10;;;;;;;4.65;0.40;;;11.90;99.90;;;;;;4779556;30;20035;-88
2022/11/16 11:15:40;;;;;;;2.33;0.40;;;11.70;99.90;;;;;;4779881;30;20051;-84
2022/11/16 11:18:22;;;;;;;2.85;0.40;;;11.90;99.90;;;;;;4780602;30;20035;-85
2022/11/16 11:21:18;;;;;;;2.35;0.30;;;11.90;99.90;;;;;;4784387;29;20041;-87
2022/11/16 11:23:51;;;;;;;4.53;0.38;;;11.70;99.90;;;;;;4849006;29;20479;-88
2022/11/16 11:26:31;;;;;;;3.00;0.38;;;11.90;99.90;;;;;;4852253;29;20042;-87
2022/11/16 11:28:59;;;;;;;3.40;0.40;;;12.00;99.90;;;;;;4833913;29;20486;-86
2022/11/16 11:31:47;;;;;;;5.43;0.30;;;12.00;99.90;;;;;;4861670;29;20034;-86
2022/11/16 11:34:20;;;;;;;2.40;0.30;;;12.20;99.90;;;;;;4859668;29;20547;-87
2022/11/16 11:36:57;;;;;;;4.75;0.35;;;12.30;99.90;;;;;;4853230;29;20162;-89
2022/11/16 11:39:22;;;;;;;1.65;0.30;;;12.10;99.90;;;;;;4863056;29;20086;-88
2022/11/16 11:42:14;;;;;;;2.95;0.40;;;12.30;99.90;;;;;;4849100;29;20037;-84
2022/11/16 11:44:50;;;;;;;3.05;0.30;;;12.20;99.90;;;;;;4849981;29;20181;-85
2022/11/16 11:47:47;;;;;;;1.77;0.30;;;12.30;99.90;;;;;;4850528;29;20052;-85
2022/11/16 11:50:34;;;;;;;3.17;0.20;;;12.20;99.90;;;;;;4850985;29;20188;-89
2022/11/16 11:53:17;;;;;;;0.85;0.20;;;12.30;99.90;;;;;;4850588;29;20423;-82
2022/11/16 11:55:43;;;;;;;3.75;0.30;;;12.30;99.90;;;;;;4848584;29;20037;-84
2022/11/16 11:58:16;;;;;;;3.85;0.20;;;12.30;99.90;;;;;;4839735;29;20120;-88
2022/11/16 12:00:48;;;;;;;1.23;0.10;;;12.40;99.90;;;;;;4859277;29;20026;-89
2022/11/16 12:03:44;;;;;;;2.55;0.20;;;12.50;99.90;;;;;;4847634;29;20364;-87
2022/11/16 12:06:28;;;;;;;1.85;0.20;;;12.50;99.90;;;;;;4842839;29;20118;-85
2022/11/16 12:09:18;;;;;;;2.60;0.20;;;12.40;99.90;;;;;;4852308;29;20037;-85
2022/11/16 12:12:03;;;;;;;4.00;0.40;;;12.40;99.90;;;;;;4848747;29;20037;-84
2022/11/16 12:14:49;;;;;;;1.27;0.20;;;12.50;99.90;;;;;;4865761;29;20037;-84
2022/11/16 12:17:37;;;;;;;2.15;0.20;;;12.40;99.90;;;;;;4849453;29;20068;-84
2022/11/16 12:20:40;;;;;;;5.20;0.30;;;12.30;99.90;;;;;;4851743;29;20120;-86
2022/11/16 12:23:24;;;;;;;0.60;0.10;;;12.30;99.90;;;;;;4855010;29;20036;-86
2022/11/16 12:26:13;;;;;;;1.58;0.15;;;12.30;99.90;;;;;;4852207;29;20062;-89
2022/11/16 12:28:41;;;;;;;1.65;0.20;;;12.20;99.90;;;;;;4855858;29;20026;-87
2022/11/16 12:31:33;;;;;;;0.93;0.10;;;12.20;99.90;;;;;;4852875;29;20086;-88
2022/11/16 12:34:09;;;;;;;1.73;0.10;;;12.20;99.90;;;;;;4838599;29;20040;-86
2022/11/16 12:36:55;;;;;;;2.63;0.25;;;12.20;99.90;;;;;;4853233;29;20038;-85
2022/11/16 12:39:51;;;;;;;2.50;0.10;;;12.30;99.90;;;;;;4847105;29;20038;-88
2022/11/16 12:42:31;;;;;;;2.38;0.10;;;12.20;99.90;;;;;;4855052;29;20128;-89
2022/11/16 12:45:38;;;;;;;0.93;0.10;;;12.20;99.90;;;;;;4867069;29;20045;-84
2022/11/16 12:48:13;;;;;;;1.30;0.10;;;12.20;99.90;;;;;;4855879;29;20037;-87
2022/11/16 12:51:07;;;;;;;1.60;0.10;;;12.20;99.90;;;;;;4852011;29;20090;-86
2022/11/16 12:54:04;;;;;;;1.45;0.20;;;12.60;99.90;;;;;;4866834;29;20038;-89
2022/11/16 12:56:45;;;;;;;2.95;0.20;;;12.70;99.90;;;;;;4854201;29;20128;-86
2022/11/16 12:59:33;;;;;;;2.70;0.28;;;12.60;99.90;;;;;;4852644;29;20466;-88
2022/11/16 13:02:08;;;;;;;2.45;0.20;;;12.80;99.90;;;;;;4852500;29;20037;-86
2022/11/16 13:04:44;;;;;;;1.90;0.20;;;12.80;99.90;;;;;;4836287;29;20488;-87
2022/11/16 13:07:19;;;;;;;1.98;0.40;;;12.90;99.90;;;;;;4850936;29;20038;-89
2022/11/16 13:09:53;;;;;;;3.95;0.10;;;12.80;99.90;;;;;;4850703;29;20402;-88
2022/11/16 13:12:22;;;;;;;2.03;0.10;;;12.60;99.90;;;;;;4853789;29;20038;-84
2022/11/16 13:14:53;;;;;;;2.22;0.10;;;12.70;99.90;;;;;;4841294;29;20358;-89
2022/11/16 13:17:27;;;;;;;2.65;0.20;;;12.70;99.90;;;;;;4834836;29;20061;-83
2022/11/16 13:20:11;;;;;;;3.53;0.20;;;12.60;99.90;;;;;;4850659;29;20057;-88
2022/11/16 13:22:49;;;;;;;4.13;0.30;;;12.60;99.90;;;;;;4838341;29;20486;-84
2022/11/16 13:25:42;;;;;;;2.50;0.35;;;12.50;99.90;;;;;;4852290;29;20034;-87
2022/11/16 13:28:22;;;;;;;1.73;0.10;;;12.60;99.90;;;;;;4846629;29;20061;-83
2022/11/16 13:31:32;;;;;;;1.10;0.10;;;12.60;99.90;;;;;;4863443;29;20290;-86
2022/11/16 13:34:06;;;;;;;0.80;0.10;;;12.70;99.90;;;;;;4813960;29;20042;-83
2022/11/16 13:36:35;;;;;;;0.65;0.10;;;12.60;99.90;;;;;;4821390;29;20555;-85
2022/11/16 13:39:01;;;;;;;0.98;0.10;;;12.50;99.90;;;;;;4819818;29;20038;-86
2022/11/16 13:41:36;;;;;;;0.68;0.10;;;12.40;99.90;;;;;;4837046;29;20058;-86
2022/11/16 13:44:04;;;;;;;1.23;0.10;;;12.50;99.90;;;;;;4820714;29;20054;-87
2022/11/16 13:46:40;;;;;;;1.42;0.10;;;12.60;99.90;;;;;;4802342;29;20134;-85
2022/11/16 13:49:22;;;;;;;1.58;0.10;;;12.60;99.90;;;;;;4805705;29;20037;-87
2022/11/16 13:51:59;;;;;;;0.65;0.03;;;12.50;99.90;;;;;;4798860;29;20551;-89
2022/11/16 13:54:42;;;;;;;1.63;0.08;;;12.50;99.90;;;;;;4816852;29;20496;-84
2022/11/16 13:57:24;;;;;;;1.98;0.10;;;12.50;99.90;;;;;;4817534;29;20129;-87
2022/11/16 14:00:10;;;;;;;1.83;0.10;;;12.40;99.90;;;;;;4819363;29;20479;-87
2022/11/16 14:02:40;;;;;;;1.23;0.20;;;12.40;99.90;;;;;;4819410;29;20038;-86
2022/11/16 14:05:11;;;;;;;0.75;0.10;;;12.30;99.90;;;;;;4819178;29;20187;-87